Time;durP1;ratioP1;P1;durP2;ratioP2;P2;SDS_P1;SDS_P2;PMS_P1;PMS_P2;Temp;Humidity;BMP_temperature;BMP_pressure;BME280_temperature;BME280_humidity;BME280_pressure;Samples;Min_cycle;Max_cycle;Signal;HPM_P1;HPM_P2
2023/01/16 02:21:58;;;;;;;52.50;25.80;;;;;;;-0.48;90.17;101281.63;105578;1264;62797;-90
2023/01/16 02:24:51;;;;;;;55.50;25.10;;;;;;;-0.41;90.48;101279.37;105324;1264;73649;-91
2023/01/16 02:27:47;;;;;;;57.90;23.70;;;;;;;-0.31;90.59;101278.97;105521;1266;65873;-91
2023/01/16 02:30:33;;;;;;;69.80;29.40;;;;;;;-0.19;90.45;101273.61;106224;1263;74721;-91
2023/01/16 02:33:33;;;;;;;61.50;27.30;;;;;;;-0.16;90.20;101273.08;106980;1266;60482;-89
2023/01/16 02:36:06;;;;;;;64.50;27.60;;;;;;;-0.09;90.11;101267.70;108513;1263;61198;-89
2023/01/16 02:39:12;;;;;;;54.30;29.00;;;;;;;-0.06;89.76;101271.80;108288;1264;72899;-88
2023/01/16 02:41:48;;;;;;;62.30;30.60;;;;;;;-0.07;89.52;101277.84;106225;1263;63775;-87
2023/01/16 02:44:39;;;;;;;58.10;28.70;;;;;;;-0.08;89.24;101273.70;107487;1264;73445;-87
2023/01/16 02:47:37;;;;;;;54.60;27.40;;;;;;;-0.11;88.96;101270.29;106022;1268;62120;-91
2023/01/16 02:50:22;;;;;;;51.90;24.80;;;;;;;-0.16;88.81;101267.57;105518;1263;62436;-90
2023/01/16 02:52:51;;;;;;;51.90;27.80;;;;;;;-0.22;88.82;101269.66;108915;1263;73883;-89
2023/01/16 02:55:35;;;;;;;55.70;24.90;;;;;;;-0.23;89.01;101267.42;108911;1263;64527;-90
2023/01/16 02:58:04;;;;;;;50.30;23.60;;;;;;;-0.23;89.04;101272.75;108906;1263;73825;-89
2023/01/16 03:00:31;;;;;;;57.00;25.30;;;;;;;-0.21;89.10;101264.67;108765;1263;61906;-89
2023/01/16 03:02:58;;;;;;;57.50;26.90;;;;;;;-0.15;89.35;101265.14;108869;1259;61222;-89
2023/01/16 03:05:26;;;;;;;56.00;27.20;;;;;;;-0.08;89.49;101262.20;107116;1266;74173;-91
2023/01/16 03:08:02;;;;;;;55.60;27.10;;;;;;;-0.01;89.46;101263.87;105661;1265;66062;-91
2023/01/16 03:10:55;;;;;;;53.30;26.60;;;;;;;0.07;89.20;101269.15;106172;1260;74970;-89
2023/01/16 03:13:28;;;;;;;64.20;27.60;;;;;;;0.09;88.67;101272.41;106295;1262;60950;-90
2023/01/16 03:16:21;;;;;;;56.70;26.10;;;;;;;0.12;88.63;101272.73;106129;1263;62575;-91
2023/01/16 03:19:13;;;;;;;51.90;24.40;;;;;;;0.17;88.33;101275.63;108344;1254;72543;-86
2023/01/16 03:21:52;;;;;;;49.40;21.90;;;;;;;0.21;87.91;101275.42;109410;1253;64713;-86
2023/01/16 03:24:43;;;;;;;48.60;24.40;;;;;;;0.24;87.91;101277.64;109206;1251;73728;-89
2023/01/16 03:27:20;;;;;;;54.70;26.10;;;;;;;0.28;87.90;101282.08;107334;1254;60491;-89
2023/01/16 03:29:59;;;;;;;49.00;24.40;;;;;;;0.31;87.97;101282.93;106557;1252;61155;-93
2023/01/16 03:32:31;;;;;;;61.30;27.10;;;;;;;0.31;87.56;101285.33;107456;1253;75017;-92
2023/01/16 03:35:06;;;;;;;50.60;26.10;;;;;;;0.32;87.46;101283.42;107244;1256;64578;-91
2023/01/16 03:37:53;;;;;;;;;;;;;;;0.32;87.26;101282.05;107169;1254;73596;-91
2023/01/16 03:40:32;;;;;;;51.70;23.60;;;;;;;0.30;86.96;101283.28;106932;1257;62120;-90
2023/01/16 03:43:14;;;;;;;53.60;25.60;;;;;;;0.29;86.96;101283.79;106277;1256;61178;-92
2023/01/16 03:45:55;;;;;;;51.50;23.40;;;;;;;0.30;86.98;101280.02;107360;1256;73900;-90
2023/01/16 03:48:34;;;;;;;56.80;25.30;;;;;;;0.32;87.01;101282.38;107541;1257;65599;-91
2023/01/16 03:51:06;;;;;;;60.00;27.50;;;;;;;0.35;87.14;101288.39;107378;1254;71780;-93
2023/01/16 03:53:40;;;;;;;59.50;25.80;;;;;;;0.39;87.36;101291.98;107073;1253;61215;-93
2023/01/16 03:56:26;;;;;;;60.60;26.70;;;;;;;0.42;87.18;101293.50;106661;1254;61169;-91
2023/01/16 03:58:54;;;;;;;63.60;27.20;;;;;;;0.46;86.85;101298.11;106660;1256;73892;-90
2023/01/16 04:01:50;;;;;;;68.90;29.80;;;;;;;0.45;86.66;101298.47;106764;1254;64546;-89
2023/01/16 04:08:29;;;;;;;71.90;30.70;;;;;;;0.38;86.39;101294.40;103444;1291;600156;-89
2023/01/16 04:11:00;;;;;;;78.10;32.20;;;;;;;0.33;86.56;101296.15;105701;1269;62591;-91
2023/01/16 04:13:30;;;;;;;60.90;28.90;;;;;;;0.29;86.68;101292.55;106505;1257;60912;-90
2023/01/16 04:15:58;;;;;;;65.00;27.00;;;;;;;0.28;86.94;101296.35;106225;1258;73896;-93
2023/01/16 04:18:30;;;;;;;73.30;31.80;;;;;;;0.27;87.04;101297.38;106138;1257;62728;-91
2023/01/16 04:20:58;;;;;;;75.90;32.10;;;;;;;0.25;87.21;101290.88;106112;1261;588690;-91
2023/01/16 04:23:26;;;;;;;84.10;35.60;;;;;;;0.24;87.62;101288.64;106150;1257;61863;-92
2023/01/16 04:25:53;;;;;;;74.10;33.10;;;;;;;0.23;87.68;101285.20;106272;1263;59590;-91
2023/01/16 04:28:21;;;;;;;84.30;35.10;;;;;;;0.23;87.76;101284.52;106394;1262;73598;-93
2023/01/16 04:30:48;;;;;;;85.60;32.00;;;;;;;0.20;87.56;101281.97;106848;1257;64778;-90
2023/01/16 04:33:18;;;;;;;78.90;30.20;;;;;;;0.15;87.56;101282.50;107015;1257;74769;-92
2023/01/16 04:35:45;;;;;;;76.40;27.90;;;;;;;0.13;87.73;101277.55;106089;1262;63384;-92
2023/01/16 04:38:13;;;;;;;69.30;27.50;;;;;;;0.14;88.16;101279.76;105940;1255;62614;-91
2023/01/16 04:40:40;;;;;;;86.20;32.50;;;;;;;0.16;88.36;101278.39;106020;1256;73864;-91
2023/01/16 04:43:07;;;;;;;71.30;29.10;;;;;;;0.18;88.73;101275.62;107559;1254;64707;-92
2023/01/16 04:45:34;;;;;;;89.90;30.70;;;;;;;0.21;88.79;101268.71;106260;1262;73764;-92
2023/01/16 04:48:04;;;;;;;83.30;30.60;;;;;;;0.28;88.62;101274.34;106618;1251;59996;-92
2023/01/16 04:50:32;;;;;;;91.90;30.00;;;;;;;0.28;88.46;101269.18;106781;1254;62315;-93
2023/01/16 04:53:00;;;;;;;84.10;30.80;;;;;;;0.23;88.19;101271.98;106562;1254;75014;-90
2023/01/16 04:55:27;;;;;;;88.60;28.20;;;;;;;0.23;88.28;101271.29;106420;1257;64902;-94
2023/01/16 04:57:55;;;;;;;79.90;27.00;;;;;;;0.22;88.11;101265.45;106663;1253;73384;-90
2023/01/16 05:00:22;;;;;;;79.10;33.10;;;;;;;0.18;88.23;101264.79;106595;1260;61767;-90
2023/01/16 05:02:50;;;;;;;81.70;31.00;;;;;;;0.16;88.55;101266.52;107338;1253;61168;-90
2023/01/16 05:05:17;;;;;;;68.10;26.30;;;;;;;0.13;88.66;101263.61;108969;1253;74114;-89
2023/01/16 05:08:15;;;;;;;86.40;32.60;;;;;;;0.08;88.81;101259.17;108543;1258;64524;-93
2023/01/16 05:10:33;;;;;;;86.30;33.30;;;;;;;0.04;88.95;101264.88;106666;1254;74640;-91
2023/01/16 05:13:01;;;;;;;90.00;34.30;;;;;;;-0.01;89.31;101261.30;106539;1260;61989;-91
2023/01/16 05:15:29;;;;;;;91.90;31.80;;;;;;;0.01;89.45;101265.41;106884;1259;60977;-91
2023/01/16 05:18:13;;;;;;;84.20;28.80;;;;;;;0.01;89.34;101260.77;107972;1256;71827;-92
2023/01/16 05:20:44;;;;;;;84.60;31.20;;;;;;;0.04;89.66;101259.89;108741;1257;64963;-89
2023/01/16 05:23:11;;;;;;;75.30;27.90;;;;;;;0.07;89.48;101259.86;109122;1254;73423;-87
2023/01/16 05:25:39;;;;;;;84.00;30.40;;;;;;;0.04;89.56;101254.56;107705;1254;62091;-93
2023/01/16 05:28:06;;;;;;;74.90;28.50;;;;;;;0.01;89.70;101251.66;106998;1260;61088;-89
2023/01/16 05:30:33;;;;;;;87.20;30.20;;;;;;;-0.01;89.81;101247.38;107534;1254;73879;-91
2023/01/16 05:33:02;;;;;;;70.80;26.10;;;;;;;-0.00;90.08;101239.81;108319;1254;64536;-90
2023/01/16 05:35:29;;;;;;;88.30;33.70;;;;;;;0.03;90.04;101242.70;109610;1254;73684;-92
2023/01/16 05:37:57;;;;;;;71.10;29.10;;;;;;;0.07;90.13;101245.59;109453;1254;60332;-89
2023/01/16 05:40:26;;;;;;;74.30;29.50;;;;;;;0.10;89.82;101247.13;108675;1254;61383;-92
2023/01/16 05:42:55;;;;;;;68.90;29.10;;;;;;;0.09;89.62;101246.61;106957;1254;73972;-92
2023/01/16 05:45:23;;;;;;;63.10;28.10;;;;;;;0.08;89.58;101246.45;106881;1254;66101;-93
2023/01/16 05:47:50;;;;;;;63.50;28.90;;;;;;;0.08;89.62;101243.18;107943;1257;74736;-88
2023/01/16 05:50:17;;;;;;;68.90;28.60;;;;;;;0.09;89.92;101241.63;108578;1251;60736;-90
2023/01/16 05:52:49;;;;;;;74.40;30.20;;;;;;;0.09;89.67;101243.88;108252;1251;61218;-92
2023/01/16 05:55:17;;;;;;;70.40;30.90;;;;;;;0.09;89.79;101238.53;107978;1251;72925;-92
2023/01/16 05:57:44;;;;;;;74.90;30.00;;;;;;;0.09;89.78;101231.84;107789;1251;65273;-92
2023/01/16 06:00:12;;;;;;;79.70;30.70;;;;;;;0.07;89.61;101228.59;108252;1254;71614;-92
2023/01/16 06:02:46;;;;;;;70.50;28.20;;;;;;;0.09;89.37;101236.48;107800;1251;61843;-91
2023/01/16 06:05:16;;;;;;;64.80;27.30;;;;;;;0.11;89.47;101240.08;108846;1251;61177;-92
2023/01/16 06:07:56;;;;;;;67.40;28.20;;;;;;;0.11;89.36;101241.45;107984;1251;74909;-92
2023/01/16 06:10:29;;;;;;;66.80;31.60;;;;;;;0.12;89.40;101238.00;108386;1251;65961;-92
2023/01/16 06:12:57;;;;;;;71.30;31.10;;;;;;;0.18;89.67;101234.52;108674;1254;74607;-91
2023/01/16 06:15:24;;;;;;;69.50;30.50;;;;;;;0.25;89.56;101227.42;108424;1251;60265;-92
2023/01/16 06:17:55;;;;;;;68.70;30.60;;;;;;;0.30;89.38;101221.36;108269;1251;61393;-92
2023/01/16 06:20:43;;;;;;;66.00;31.00;;;;;;;0.37;89.55;101222.16;107701;1251;75734;-92
2023/01/16 06:23:13;;;;;;;61.70;30.40;;;;;;;0.47;89.17;101223.98;107683;1251;66294;-93
2023/01/16 06:25:42;;;;;;;60.80;28.30;;;;;;;0.50;88.65;101225.67;107630;1253;74741;-91
2023/01/16 06:28:09;;;;;;;76.60;30.20;;;;;;;0.50;88.29;101224.64;107723;1253;63095;-92
2023/01/16 06:30:36;;;;;;;59.00;26.00;;;;;;;0.47;88.00;101218.81;107962;1253;61228;-93
2023/01/16 06:33:04;;;;;;;69.40;28.50;;;;;;;0.42;87.75;101213.52;108368;1252;74950;-93
2023/01/16 06:35:37;;;;;;;53.10;24.70;;;;;;;0.35;87.77;101215.30;109649;1253;64896;-92
2023/01/16 06:38:16;;;;;;;66.50;29.70;;;;;;;0.30;87.99;101216.21;109332;1247;73582;-89
2023/01/16 06:44:11;;;;;;;70.40;31.80;;;;;;;0.41;88.48;101219.73;91438;1258;59526;-93
2023/01/16 06:47:04;;;;;;;67.70;31.10;;;;;;;0.51;88.38;101222.91;107952;1258;75032;-93
2023/01/16 06:50:15;;;;;;;69.40;30.00;;;;;;;0.54;87.96;101228.22;108772;1258;64765;-93
2023/01/16 06:52:44;;;;;;;74.20;31.50;;;;;;;0.52;87.90;101230.46;107844;1262;71296;-92
2023/01/16 06:55:23;;;;;;;76.00;34.50;;;;;;;0.56;87.57;101234.07;107775;1265;59779;-92
2023/01/16 06:57:52;;;;;;;72.50;30.00;;;;;;;0.57;87.52;101236.63;107489;1261;61950;-93
2023/01/16 07:00:37;;;;;;;77.80;30.90;;;;;;;0.61;87.52;101234.34;107651;1260;73687;-93
2023/01/16 07:03:05;;;;;;;83.00;33.50;;;;;;;0.68;87.88;101239.27;107389;1263;65693;-92
2023/01/16 07:05:34;;;;;;;80.90;32.70;;;;;;;0.79;88.18;101243.13;108936;1263;73368;-90
2023/01/16 07:08:04;;;;;;;78.20;34.50;;;;;;;0.87;87.93;101241.84;108974;1263;60924;-91
2023/01/16 07:10:36;;;;;;;81.00;33.90;;;;;;;0.95;87.34;101247.96;108974;1263;60928;-92
2023/01/16 07:13:05;;;;;;;87.90;34.20;;;;;;;0.95;86.93;101247.62;108944;1264;73984;-92
2023/01/16 11:09:29;;;;;;;57.60;28.40;;;;;;;1.54;84.67;101141.31;104157;1282;617095;-90
2023/01/16 11:20:34;;;;;;;80.60;35.40;;;;;;;2.08;83.66;101133.26;106384;1274;64547;-91
2023/01/16 11:23:22;;;;;;;77.30;35.30;;;;;;;2.20;83.17;101134.77;106378;1270;73679;-89
2023/01/16 11:26:03;;;;;;;72.50;35.00;;;;;;;2.28;82.61;101135.32;106865;1261;60661;-92
2023/01/16 11:28:44;;;;;;;69.30;36.20;;;;;;;2.33;82.04;101134.88;107174;1261;62001;-93
2023/01/16 11:31:23;;;;;;;69.80;35.40;;;;;;;2.35;81.72;101131.23;108198;1259;74194;-94
2023/01/16 11:34:14;;;;;;;74.00;36.70;;;;;;;2.34;81.21;101127.80;108375;1260;64771;-90
2023/01/16 11:37:02;;;;;;;70.80;35.30;;;;;;;2.27;81.13;101119.48;108516;1264;71855;-91
2023/01/16 11:39:42;;;;;;;53.90;28.80;;;;;;;2.31;81.09;101124.58;108415;1262;62100;-91
2023/01/16 11:46:11;;;;;;;48.30;26.60;;;;;;;2.27;80.50;101118.79;107776;1263;72746;-94
2023/01/16 11:49:04;;;;;;;51.80;25.50;;;;;;;2.26;80.46;101118.98;108277;1260;64768;-92
2023/01/16 11:51:34;;;;;;;57.60;30.70;;;;;;;2.27;80.40;101120.00;108842;1259;74020;-93
2023/01/16 11:54:02;;;;;;;55.00;27.30;;;;;;;2.28;80.11;101124.28;108798;1261;60412;-90
2023/01/16 11:56:47;;;;;;;50.30;25.50;;;;;;;2.26;79.74;101129.66;108874;1259;61168;-90
2023/01/16 12:16:47;;;;;;;53.00;28.50;;;;;;;2.50;79.11;101139.09;107936;1267;129349;-91
2023/01/16 12:19:44;;;;;;;55.60;27.90;;;;;;;2.47;79.21;101144.65;107524;1267;59609;-92
2023/01/16 12:22:44;;;;;;;49.90;27.00;;;;;;;2.44;79.22;101144.19;107605;1270;69958;-94
2023/01/16 12:25:24;;;;;;;56.80;29.90;;;;;;;2.39;79.32;101141.36;107173;1270;65442;-91
2023/01/16 12:28:57;;;;;;;43.70;21.60;;;;;;;2.35;79.47;101143.67;107504;1267;74479;-92
2023/01/16 12:31:51;;;;;;;48.40;23.90;;;;;;;2.32;79.76;101144.40;106050;1284;63513;-90
2023/01/16 12:34:28;;;;;;;38.60;21.50;;;;;;;2.32;79.92;101146.30;105863;1281;61530;-91
2023/01/16 12:37:44;;;;;;;41.30;21.80;;;;;;;2.27;79.95;101139.48;106534;1277;73837;-92
2023/01/16 12:40:46;;;;;;;43.20;22.80;;;;;;;2.23;79.71;101143.86;106443;1276;65838;-90
2023/01/16 12:43:27;;;;;;;45.70;24.40;;;;;;;2.16;79.89;101139.00;106576;1276;73739;-93
2023/01/16 12:46:08;;;;;;;44.90;24.50;;;;;;;2.10;80.23;101137.02;106129;1277;62729;-93
2023/01/16 12:49:00;;;;;;;46.70;25.70;;;;;;;2.06;80.46;101134.50;106528;1273;62219;-93
2023/01/16 12:51:46;;;;;;;52.80;27.10;;;;;;;2.06;80.47;101140.17;107293;1279;73395;-92
2023/01/16 12:54:54;;;;;;;45.70;23.40;;;;;;;2.07;80.81;101140.34;107438;1276;62944;-92
2023/01/16 12:57:49;;;;;;;46.30;24.30;;;;;;;2.07;81.10;101139.48;108152;1276;71491;-92
2023/01/16 13:00:42;;;;;;;51.40;28.20;;;;;;;2.07;81.26;101137.08;107884;1275;59915;-91
2023/01/16 13:04:16;;;;;;;54.20;31.00;;;;;;;2.08;81.70;101141.17;106949;1276;63489;-93
2023/01/16 13:07:16;;;;;;;49.10;25.80;;;;;;;2.15;81.87;101139.52;107249;1271;71875;-90
2023/01/16 13:13:20;;;;;;;49.70;26.20;;;;;;;2.17;81.62;101143.80;107465;1267;64540;-92
2023/01/16 13:16:46;;;;;;;50.80;27.20;;;;;;;2.10;81.67;101143.40;108511;1266;60348;-91
2023/01/16 13:19:49;;;;;;;53.20;28.20;;;;;;;2.07;81.93;101146.73;107858;1267;59179;-92
2023/01/16 13:22:58;;;;;;;53.00;24.80;;;;;;;2.07;82.13;101146.02;107933;1260;71677;-91
2023/01/16 13:25:42;;;;;;;43.70;23.50;;;;;;;2.08;82.29;101144.11;107805;1259;62676;-92
2023/01/16 13:28:24;;;;;;;39.60;21.60;;;;;;;2.09;82.48;101145.15;108027;1259;74480;-94
2023/01/16 13:31:16;;;;;;;41.00;23.60;;;;;;;2.11;82.82;101144.92;108236;1260;61480;-92
2023/01/16 13:34:23;;;;;;;45.20;24.20;;;;;;;2.15;82.93;101142.80;107925;1265;61725;-92
2023/01/16 13:37:52;;;;;;;39.50;21.20;;;;;;;2.19;82.91;101141.52;107523;1259;73020;-92
2023/01/16 13:40:39;;;;;;;40.90;21.20;;;;;;;2.17;82.79;101141.89;107251;1264;65889;-93
2023/01/16 13:46:28;;;;;;;40.50;22.90;;;;;;;1.93;82.98;101130.56;107818;1267;59597;-92
2023/01/16 13:49:34;;;;;;;39.50;22.00;;;;;;;1.82;83.47;101131.60;107309;1261;59057;-93
2023/01/16 13:52:26;;;;;;;45.00;24.00;;;;;;;1.71;84.08;101124.20;107110;1266;73317;-90
2023/01/16 13:55:19;;;;;;;40.20;23.20;;;;;;;1.64;84.55;101121.00;107335;1261;63613;-92
2023/01/16 13:58:14;;;;;;;40.80;22.80;;;;;;;1.61;85.01;101113.32;107054;1263;71457;-91
2023/01/16 14:01:02;;;;;;;34.10;22.70;;;;;;;1.57;85.32;101115.27;108419;1264;58490;-94
2023/01/16 14:04:40;;;;;;;47.40;26.50;;;;;;;1.54;85.81;101109.45;107732;1267;59235;-90
2023/01/16 14:10:46;;;;;;;53.30;27.70;;;;;;;1.55;86.14;101106.16;106754;1278;63988;-93
2023/01/16 14:13:38;;;;;;;45.30;23.50;;;;;;;1.55;86.19;101104.10;106508;1279;73647;-92
2023/01/16 14:16:35;;;;;;;47.50;25.40;;;;;;;1.56;86.03;101107.00;106630;1274;59688;-91
2023/01/16 14:19:15;;;;;;;42.50;23.40;;;;;;;1.51;86.01;101109.31;107161;1267;61083;-93
2023/01/16 14:25:30;;;;;;;39.80;21.80;;;;;;;1.42;86.28;101103.08;108409;1267;63258;-92
2023/01/16 14:29:30;;;;;;;45.10;25.10;;;;;;;1.41;86.37;101107.05;108270;1267;71400;-93
2023/01/16 14:32:36;;;;;;;46.00;26.30;;;;;;;1.43;86.64;101114.94;107540;1267;58303;-92
2023/01/16 14:35:26;;;;;;;56.80;30.50;;;;;;;1.49;86.67;101116.75;107128;1272;61095;-93
2023/01/16 14:38:22;;;;;;;59.10;32.80;;;;;;;1.57;86.59;101118.89;106875;1270;74191;-90
2023/01/16 14:57:40;;;;;;;47.80;27.90;;;;;;;1.66;85.82;101120.48;107330;1262;65007;-91
2023/01/16 15:00:13;;;;;;;53.40;28.30;;;;;;;1.72;85.45;101117.62;108590;1261;73140;-92
2023/01/16 15:02:46;;;;;;;58.30;30.60;;;;;;;1.70;85.37;101119.55;108086;1260;60692;-93
2023/01/16 15:05:53;;;;;;;55.90;33.20;;;;;;;1.74;85.45;101114.65;107842;1262;60491;-92
2023/01/16 15:08:34;;;;;;;57.50;30.40;;;;;;;1.79;85.37;101111.98;108393;1262;73867;-93
2023/01/16 15:11:31;;;;;;;46.60;29.30;;;;;;;1.85;85.12;101113.63;107999;1261;61619;-92
2023/01/16 15:23:26;;;;;;;55.90;28.60;;;;;;;2.02;84.88;101124.05;107549;1256;73910;-91
2023/01/16 15:26:03;;;;;;;47.70;28.40;;;;;;;2.06;84.57;101121.22;106998;1255;65632;-92
2023/01/16 15:28:59;;;;;;;55.50;28.00;;;;;;;2.07;84.42;101128.95;107212;1255;73566;-91
2023/01/16 15:32:03;;;;;;;55.30;27.50;;;;;;;2.07;84.10;101123.95;108186;1256;59331;-92
2023/01/16 15:34:31;;;;;;;46.40;26.60;;;;;;;2.00;83.68;101120.80;109032;1255;61280;-93
2023/01/16 15:37:02;;;;;;;47.00;25.50;;;;;;;1.91;83.70;101118.35;107683;1255;74965;-91
2023/01/16 15:51:16;;;;;;;43.00;22.90;;;;;;;1.77;84.86;101082.73;105260;1285;601273;-92
2023/01/16 15:54:26;;;;;;;42.30;22.50;;;;;;;1.78;84.74;101075.30;105467;1288;600224;-92
2023/01/16 15:56:58;;;;;;;40.40;21.70;;;;;;;1.70;84.61;101072.15;106418;1271;60763;-93
2023/01/16 19:39:47;;;;;;;25.90;14.70;;;;;;;2.36;84.64;100995.27;104908;1286;612642;-89
2023/01/16 19:47:55;;;;;;;22.00;13.10;;;;;;;2.65;82.45;100970.67;106070;1263;73292;-89
2023/01/16 19:50:23;;;;;;;23.80;12.50;;;;;;;2.65;81.93;100972.40;105617;1267;64563;-88
2023/01/16 19:52:50;;;;;;;21.10;11.90;;;;;;;2.64;82.05;100968.62;106339;1268;73838;-84
2023/01/16 19:55:19;;;;;;;27.60;14.40;;;;;;;2.68;81.79;100967.00;106150;1266;59463;-88
2023/01/16 19:57:48;;;;;;;19.80;12.60;;;;;;;2.69;81.50;100956.77;106471;1261;60427;-89
2023/01/16 20:00:18;;;;;;;21.00;11.60;;;;;;;2.68;80.69;100955.23;106329;1265;72579;-90
2023/01/16 20:02:46;;;;;;;20.20;11.50;;;;;;;2.64;80.46;100960.34;106448;1262;64066;-87
2023/01/16 20:05:13;;;;;;;20.60;13.00;;;;;;;2.59;80.64;100965.11;106458;1260;74353;-89
2023/01/16 20:07:40;;;;;;;20.70;11.80;;;;;;;2.58;80.72;100969.61;106282;1259;59781;-87
2023/01/16 20:10:08;;;;;;;19.70;11.60;;;;;;;2.60;80.56;100965.59;106560;1258;60440;-88
2023/01/16 20:12:36;;;;;;;14.50;10.00;;;;;;;2.63;80.26;100963.12;107098;1260;74022;-87
2023/01/16 20:15:03;;;;;;;17.60;10.30;;;;;;;2.62;80.08;100955.02;107901;1261;64902;-87
2023/01/16 20:17:36;;;;;;;18.10;10.90;;;;;;;2.60;79.88;100957.14;108059;1255;72403;-88
2023/01/16 20:20:05;;;;;;;18.70;10.30;;;;;;;2.59;79.92;100954.25;107737;1254;60554;-89
2023/01/16 20:22:32;;;;;;;17.20;10.50;;;;;;;2.60;79.84;100957.84;107895;1254;59589;-88
2023/01/16 20:25:12;;;;;;;17.00;9.80;;;;;;;2.61;79.74;100957.99;107809;1254;72741;-85
2023/01/16 20:27:41;;;;;;;18.80;10.80;;;;;;;2.63;79.54;100960.03;107628;1257;65383;-87
2023/01/16 20:30:44;;;;;;;13.00;9.00;;;;;;;2.63;79.41;100961.55;107990;1256;72628;-88
2023/01/16 20:33:14;;;;;;;;;;;;;;;2.64;79.28;100965.35;107626;1259;61308;-87
2023/01/16 20:35:41;;;;;;;18.50;11.10;;;;;;;2.65;79.23;100973.45;107539;1254;61119;-87
2023/01/16 20:38:09;;;;;;;18.70;9.30;;;;;;;2.66;79.27;100976.88;107463;1254;72872;-87
2023/01/16 20:40:39;;;;;;;16.80;9.60;;;;;;;2.70;79.28;100978.51;107537;1259;65072;-87
2023/01/16 20:45:58;;;;;;;22.60;11.60;;;;;;;2.76;78.90;100968.88;106868;1259;60010;-88
2023/01/16 20:48:26;;;;;;;21.70;11.30;;;;;;;2.76;78.88;100971.64;107302;1259;60070;-88
2023/01/16 20:50:53;;;;;;;21.70;11.90;;;;;;;2.76;78.54;100975.27;106920;1263;73894;-88
2023/01/16 20:53:21;;;;;;;18.90;12.20;;;;;;;2.75;78.57;100975.80;107201;1259;64805;-87
2023/01/16 20:55:49;;;;;;;20.50;11.50;;;;;;;2.75;78.72;100970.96;107147;1259;72604;-89
2023/01/16 20:58:16;;;;;;;21.40;11.40;;;;;;;2.77;78.42;100969.70;106810;1260;60931;-87
2023/01/16 21:00:43;;;;;;;20.60;11.70;;;;;;;2.77;78.74;100966.43;106944;1260;61255;-86
2023/01/16 21:03:11;;;;;;;23.30;10.90;;;;;;;2.78;78.68;100958.31;107162;1260;73781;-89
2023/01/16 21:05:42;;;;;;;22.20;11.70;;;;;;;2.81;78.54;100960.33;107407;1259;65113;-86
2023/01/16 21:08:11;;;;;;;21.40;10.00;;;;;;;2.82;78.62;100962.17;107302;1259;72543;-88
2023/01/16 21:10:40;;;;;;;16.70;10.40;;;;;;;2.86;78.61;100956.23;107308;1259;59747;-87
2023/01/16 21:21:48;;;;;;;17.00;10.50;;;;;;;2.86;78.18;100944.83;108780;1254;72013;-86
2023/01/16 21:24:21;;;;;;;16.80;9.50;;;;;;;2.83;78.24;100947.64;107924;1254;61048;-86
2023/01/16 21:26:51;;;;;;;15.90;10.10;;;;;;;2.82;78.34;100947.67;108050;1254;61523;-85
2023/01/16 21:29:19;;;;;;;18.40;9.70;;;;;;;2.83;78.72;100950.41;107620;1254;72117;-86
2023/01/16 21:31:46;;;;;;;16.30;8.80;;;;;;;2.85;78.63;100952.11;108288;1249;63452;-87
2023/01/16 21:34:35;;;;;;;17.00;9.80;;;;;;;2.87;78.34;100953.44;108212;1257;75145;-86
2023/01/16 21:37:05;;;;;;;15.20;9.10;;;;;;;2.85;78.35;100953.14;107726;1257;59480;-86
2023/01/16 21:39:32;;;;;;;15.30;9.30;;;;;;;2.81;78.24;100953.58;107602;1256;61468;-86
2023/01/16 21:47:49;;;;;;;15.20;8.80;;;;;;;2.81;78.38;100951.02;107114;1256;73816;-85
2023/01/16 21:50:43;;;;;;;14.70;9.50;;;;;;;2.83;78.64;100951.48;107332;1257;60770;-86
2023/01/16 21:53:12;;;;;;;13.10;8.60;;;;;;;2.87;78.70;100945.84;107491;1256;61385;-86
2023/01/16 21:55:42;;;;;;;14.90;8.80;;;;;;;2.89;78.61;100940.60;107666;1256;72519;-86
2023/01/16 21:58:14;;;;;;;16.60;9.70;;;;;;;2.93;78.30;100938.80;107660;1257;64792;-88
2023/01/16 22:00:44;;;;;;;19.40;10.50;;;;;;;2.97;78.33;100936.46;108455;1258;73612;-88
2023/01/16 22:03:16;;;;;;;14.90;8.50;;;;;;;3.00;78.19;100930.70;107666;1257;59245;-87
2023/01/16 22:05:44;;;;;;;17.90;9.50;;;;;;;3.01;77.80;100930.86;108322;1255;60274;-90
2023/01/16 22:09:05;;;;;;;17.10;9.70;;;;;;;2.99;77.75;100928.63;108772;1251;71961;31
2023/01/16 22:17:51;;;;;;;15.50;10.00;;;;;;;2.99;77.57;100923.11;106371;1266;61431;-89
2023/01/16 22:23:18;;;;;;;17.70;10.80;;;;;;;3.04;77.74;100924.54;106511;1267;73028;-88
2023/01/16 22:25:47;;;;;;;15.00;9.60;;;;;;;3.06;77.31;100921.74;106579;1266;62542;-89
2023/01/16 22:28:18;;;;;;;14.90;10.70;;;;;;;3.07;77.50;100915.34;105963;1267;72891;-87
2023/01/16 22:30:51;;;;;;;17.50;10.30;;;;;;;3.07;77.12;100912.92;106602;1269;59540;-86
2023/01/16 22:33:18;;;;;;;19.80;10.00;;;;;;;3.04;77.19;100909.00;106655;1267;61254;-88
2023/01/16 22:35:57;;;;;;;16.10;10.20;;;;;;;3.02;77.10;100899.56;106470;1266;73961;-87
2023/01/16 22:38:41;;;;;;;23.40;10.30;;;;;;;3.01;77.07;100901.64;107642;1266;64673;-87
2023/01/16 22:41:17;;;;;;;17.20;9.90;;;;;;;3.01;77.15;100897.84;106629;1270;73840;-86
2023/01/16 22:46:45;;;;;;;12.90;9.40;;;;;;;3.04;77.17;100892.26;107450;1270;59995;-87
2023/01/16 22:49:26;;;;;;;12.90;8.60;;;;;;;3.08;77.09;100885.25;106949;1270;74082;-89
2023/01/16 22:51:53;;;;;;;16.90;8.40;;;;;;;3.09;76.86;100883.66;106546;1277;64653;-85
2023/01/16 22:54:21;;;;;;;16.90;10.10;;;;;;;3.08;76.64;100884.89;107221;1270;73510;-87
2023/01/16 22:56:54;;;;;;;15.60;10.00;;;;;;;3.05;76.79;100884.80;108329;1272;59394;-85
2023/01/16 22:59:22;;;;;;;18.10;10.00;;;;;;;3.03;76.83;100878.28;108211;1272;59383;-88
2023/01/16 23:01:58;;;;;;;18.00;10.90;;;;;;;3.02;76.58;100874.85;108278;1273;72882;-87
2023/01/16 23:04:26;;;;;;;11.90;8.50;;;;;;;3.02;76.71;100881.27;108227;1272;64082;-87
2023/01/16 23:06:54;;;;;;;12.20;8.30;;;;;;;3.03;76.71;100877.95;108371;1273;72480;-86
2023/01/16 23:09:23;;;;;;;14.80;8.40;;;;;;;3.03;76.72;100876.38;108260;1273;59577;-86
2023/01/16 23:11:53;;;;;;;16.50;9.20;;;;;;;3.04;76.50;100874.81;107484;1267;60775;-86
2023/01/16 23:14:23;;;;;;;14.40;8.70;;;;;;;3.04;76.30;100880.17;108122;1267;72980;-83
2023/01/16 23:17:10;;;;;;;19.70;8.70;;;;;;;3.03;76.17;100877.77;108161;1267;63395;-86
2023/01/16 23:19:38;;;;;;;12.80;8.70;;;;;;;3.01;76.02;100878.51;108007;1267;73869;-87
2023/01/16 23:22:06;;;;;;;16.70;10.70;;;;;;;2.98;76.03;100880.31;108357;1267;60587;-87
2023/01/16 23:24:36;;;;;;;15.80;9.60;;;;;;;2.95;75.80;100879.02;106219;1268;60434;-86
2023/01/16 23:27:03;;;;;;;18.70;10.20;;;;;;;2.91;75.84;100882.91;105739;1267;74641;-89
2023/01/16 23:29:31;;;;;;;12.80;8.10;;;;;;;2.89;76.08;100882.77;105871;1267;64805;-87
2023/01/16 23:31:58;;;;;;;11.50;8.30;;;;;;;2.88;76.02;100887.48;106018;1267;72722;-88
2023/01/16 23:34:26;;;;;;;13.40;8.80;;;;;;;2.88;76.31;100893.51;106008;1268;59823;-87
2023/01/16 23:36:54;;;;;;;14.60;9.70;;;;;;;2.88;76.22;100893.31;106031;1268;59926;-89
2023/01/16 23:39:21;;;;;;;14.70;9.40;;;;;;;2.88;76.23;100889.69;106221;1267;73157;-85
2023/01/16 23:44:35;;;;;;;14.60;10.00;;;;;;;2.92;76.03;100900.85;106350;1273;72648;-85
2023/01/16 23:47:14;;;;;;;15.10;8.90;;;;;;;2.89;75.85;100896.59;106221;1267;59824;-87
2023/01/16 23:49:46;;;;;;;16.80;9.80;;;;;;;2.83;75.94;100907.95;106097;1268;61059;-86
2023/01/16 23:52:20;;;;;;;12.20;8.90;;;;;;;2.78;75.76;100910.48;105551;1268;72729;-85
2023/01/16 23:54:51;;;;;;;11.30;8.60;;;;;;;2.73;75.91;100908.86;105090;1267;63553;-88
2023/01/16 23:57:22;;;;;;;15.60;9.00;;;;;;;2.69;76.12;100912.05;105506;1274;72634;-87
2023/01/16 23:59:49;;;;;;;15.50;9.60;;;;;;;2.66;76.33;100913.35;105677;1267;60574;-86
